Time;durP1;ratioP1;P1;durP2;ratioP2;P2;SDS_P1;SDS_P2;PMS_P1;PMS_P2;Temp;Humidity;BMP_temperature;BMP_pressure;BME280_temperature;BME280_humidity;BME280_pressure;Samples;Min_cycle;Max_cycle;Signal;HPM_P1;HPM_P2
2023/06/22 05:28:29;;;;;;;;;;;;;;;25.18;61.97;96956.09;4197870;28;11221;-63
2023/06/22 05:30:32;;;;;;;;;;;;;;;25.43;61.49;96957.78;4196919;28;5713;-62
2023/06/22 05:32:35;;;;;;;;;;;;;;;25.64;60.79;96969.25;4197571;28;5719;-61
2023/06/22 05:34:39;;;;;;;;;;;;;;;25.75;60.50;96976.19;4190904;28;5704;-63
2023/06/22 05:36:43;;;;;;;;;;;;;;;25.86;60.40;97031.88;4191261;28;5745;-62
2023/06/22 05:38:47;;;;;;;;;;;;;;;25.97;60.18;97021.75;4194390;28;6409;-63
2023/06/22 05:40:49;;;;;;;;;;;;;;;26.07;59.83;97010.81;4197971;28;5704;-62
2023/06/22 05:42:52;;;;;;;;;;;;;;;26.16;59.65;96954.88;4197529;28;5724;-63
2023/06/22 05:44:58;;;;;;;;;;;;;;;26.19;59.25;97002.28;4197781;28;7730;-62
2023/06/22 05:47:01;;;;;;;;;;;;;;;26.24;59.35;96991.38;4198123;28;5775;-64
2023/06/22 05:49:04;;;;;;;;;;;;;;;26.29;59.09;97003.00;4197715;28;5727;-63
2023/06/22 05:51:07;;;;;;;;;;;;;;;26.32;59.01;97018.66;4198015;28;5840;-63
2023/06/22 05:53:10;;;;;;;;;;;;;;;26.38;58.71;97035.69;4193703;28;6567;-63
2023/06/22 05:55:18;;;;;;;;;;;;;;;26.41;58.87;97035.13;4195805;28;5716;-62
2023/06/22 05:57:22;;;;;;;;;;;;;;;26.46;58.57;97029.63;4190970;28;5741;-63
2023/06/22 05:59:25;;;;;;;;;;;;;;;26.51;58.49;97018.75;4193302;28;7727;-63
2023/06/22 06:01:33;;;;;;;;;;;;;;;26.56;58.28;97010.53;4191429;28;7756;-63
2023/06/22 06:03:40;;;;;;;;;;;;;;;26.59;58.35;97009.94;4196318;28;5724;-62
2023/06/22 06:05:44;;;;;;;;;;;;;;;26.63;58.22;97040.03;4196802;28;5910;-63
2023/06/22 06:07:47;;;;;;;;;;;;;;;26.64;58.11;97028.09;4195945;28;5931;-63
2023/06/22 06:09:50;;;;;;;;;;;;;;;26.66;58.07;97018.56;4196323;28;5707;-63
2023/06/22 06:11:53;;;;;;;;;;;;;;;26.66;58.02;97017.75;4196300;28;5720;-63
2023/06/22 06:13:57;;;;;;;;;;;;;;;26.69;58.24;97017.16;4192693;28;5815;-63
2023/06/22 06:16:00;;;;;;;;;;;;;;;26.71;57.93;97020.38;4196673;28;5728;-63
2023/06/22 06:18:06;;;;;;;;;;;;;;;26.73;57.92;97017.38;4196080;28;5720;-63
2023/06/22 06:20:12;;;;;;;;;;;;;;;26.73;57.88;97014.66;4196520;28;5716;-63
2023/06/22 06:22:15;;;;;;;;;;;;;;;26.72;57.99;96997.59;4196373;28;5847;-63
2023/06/22 06:24:18;;;;;;;;;;;;;;;26.75;57.85;96990.78;4196425;28;5711;-63
2023/06/22 06:26:29;;;;;;;;;;;;;;;26.75;57.96;96956.34;4196203;28;5728;-63
2023/06/22 06:28:32;;;;;;;;;;;;;;;26.75;57.55;96940.06;4182762;28;5728;-63
2023/06/22 06:30:36;;;;;;;;;;;;;;;26.76;57.72;96932.75;4148965;28;5830;-63
2023/06/22 06:32:40;;;;;;;;;;;;;;;26.77;57.69;96909.94;4151879;28;5766;-62
2023/06/22 06:34:44;;;;;;;;;;;;;;;26.78;57.72;96900.69;4152182;28;5766;-63
2023/06/22 06:36:47;;;;;;;;;;;;;;;26.80;57.32;96906.63;4152153;28;5770;-63
2023/06/22 06:38:51;;;;;;;;;;;;;;;26.80;57.50;96903.91;4151988;28;5842;-63
2023/06/22 06:40:54;;;;;;;;;;;;;;;26.81;57.50;96886.53;4152024;28;5759;-63
2023/06/22 06:42:56;;;;;;;;;;;;;;;26.79;57.32;96864.34;4152245;28;5850;-64
2023/06/22 06:44:59;;;;;;;;;;;;;;;26.78;57.38;96865.44;4151701;28;5783;-63
2023/06/22 06:47:03;;;;;;;;;;;;;;;26.77;57.26;96850.28;4148386;28;5766;-63
2023/06/22 06:49:08;;;;;;;;;;;;;;;26.79;57.25;96854.31;4150615;28;6101;-63
2023/06/22 06:51:13;;;;;;;;;;;;;;;26.79;57.23;96878.72;4153205;28;5850;-63
2023/06/22 06:53:16;;;;;;;;;;;;;;;26.82;57.33;96882.72;4153199;28;5876;-61
2023/06/22 06:55:20;;;;;;;;;;;;;;;26.84;57.28;96888.66;4152889;28;5771;-62
2023/06/22 06:57:23;;;;;;;;;;;;;;;26.86;57.25;96910.91;4153007;28;5759;-62
2023/06/22 06:59:26;;;;;;;;;;;;;;;26.88;57.02;96927.69;4152703;28;5883;-62
2023/06/22 07:01:33;;;;;;;;;;;;;;;26.90;56.96;96937.13;4152876;28;5756;-62
2023/06/22 07:03:36;;;;;;;;;;;;;;;26.91;56.77;96948.78;4147852;28;5843;-62
2023/06/22 07:05:39;;;;;;;;;;;;;;;26.91;56.79;96943.34;4150621;28;5877;-61
2023/06/22 07:07:43;;;;;;;;;;;;;;;26.92;56.89;96929.50;4153007;28;5191;-62
2023/06/22 07:09:46;;;;;;;;;;;;;;;26.95;56.87;96893.63;4152682;28;5779;-63
2023/06/22 07:11:49;;;;;;;;;;;;;;;26.92;56.83;96898.84;4152979;28;5786;-63
2023/06/22 07:13:52;;;;;;;;;;;;;;;26.91;56.69;96906.19;4152676;28;5898;-62
2023/06/22 07:15:55;;;;;;;;;;;;;;;26.94;56.80;96921.06;4152750;28;5855;-63
2023/06/22 07:17:58;;;;;;;;;;;;;;;26.97;56.77;96915.88;4144002;28;6046;-63
2023/06/22 07:20:09;;;;;;;;;;;;;;;26.98;56.69;96932.94;4152645;28;5834;-63
2023/06/22 07:22:12;;;;;;;;;;;;;;;27.02;56.79;96941.31;4152727;28;5895;-63
2023/06/22 07:24:17;;;;;;;;;;;;;;;27.05;56.75;96940.72;4152698;28;5755;-63
2023/06/22 07:26:20;;;;;;;;;;;;;;;27.09;56.70;96939.84;4152688;28;5807;-63
2023/06/22 07:28:23;;;;;;;;;;;;;;;27.11;56.69;96942.28;4184588;28;5859;-63
2023/06/22 07:30:26;;;;;;;;;;;;;;;27.14;56.53;96949.81;4185681;28;5810;-63
2023/06/22 07:32:30;;;;;;;;;;;;;;;27.15;56.64;96938.66;4176463;28;5737;-63
2023/06/22 07:34:33;;;;;;;;;;;;;;;27.16;56.49;96918.56;4168769;28;5741;-63
2023/06/22 07:36:36;;;;;;;;;;;;;;;27.17;56.38;96903.09;4168935;28;5827;-64
2023/06/22 07:38:40;;;;;;;;;;;;;;;27.17;56.38;96881.38;4168866;28;5922;-63
2023/06/22 07:40:44;;;;;;;;;;;;;;;27.16;56.09;96869.72;4170344;28;5955;-64
2023/06/22 07:42:48;;;;;;;;;;;;;;;27.19;55.99;96866.44;4173829;28;6431;-64
2023/06/22 07:44:52;;;;;;;;;;;;;;;27.21;56.02;96850.66;4168843;28;5812;-63
2023/06/22 07:46:55;;;;;;;;;;;;;;;27.24;56.05;96839.19;4168821;28;5733;-63
2023/06/22 07:48:59;;;;;;;;;;;;;;;27.27;55.77;96835.06;4181398;28;5717;-63
2023/06/22 07:51:02;;;;;;;;;;;;;;;27.26;55.68;96820.69;4185393;28;5720;-64
2023/06/22 07:53:05;;;;;;;;;;;;;;;27.22;55.64;96816.97;4185335;28;5699;-63
2023/06/22 07:55:09;;;;;;;;;;;;;;;27.22;55.68;96814.25;4170651;28;5733;-63
2023/06/22 07:57:13;;;;;;;;;;;;;;;27.20;55.63;96800.19;4175197;28;5731;-64
2023/06/22 07:59:16;;;;;;;;;;;;;;;27.24;55.38;96786.81;4169479;28;5722;-63
2023/06/22 08:01:20;;;;;;;;;;;;;;;27.27;55.46;96781.59;4168662;28;5825;-63
2023/06/22 08:03:24;;;;;;;;;;;;;;;27.27;55.56;96776.16;4168453;28;5745;-63
2023/06/22 08:05:27;;;;;;;;;;;;;;;27.28;55.20;96763.38;4151987;28;6803;-63
2023/06/22 08:07:33;;;;;;;;;;;;;;;27.29;55.15;96765.00;4152244;28;6422;-63
2023/06/22 08:09:36;;;;;;;;;;;;;;;27.34;55.07;96761.41;4152318;28;5850;-63
2023/06/22 08:11:39;;;;;;;;;;;;;;;27.37;54.97;96741.78;4151996;28;5759;-63
2023/06/22 08:13:44;;;;;;;;;;;;;;;27.40;54.73;96746.59;4170692;28;5821;-63
2023/06/22 08:15:46;;;;;;;;;;;;;;;27.43;54.71;96751.44;4171364;28;5836;-63
2023/06/22 08:17:53;;;;;;;;;;;;;;;27.45;54.56;96750.03;4184492;28;5799;-63
2023/06/22 08:19:56;;;;;;;;;;;;;;;27.46;54.32;96748.94;4180653;28;5741;-63
2023/06/22 08:21:59;;;;;;;;;;;;;;;27.47;54.34;96747.00;4168688;28;5856;-63
2023/06/22 08:24:02;;;;;;;;;;;;;;;27.50;54.15;96751.84;4181582;28;5835;-64
2023/06/22 08:26:06;;;;;;;;;;;;;;;27.54;54.33;96761.00;4179054;28;5722;-64
2023/06/22 08:28:09;;;;;;;;;;;;;;;27.57;54.23;96752.25;4182137;28;5720;-63
2023/06/22 08:30:13;;;;;;;;;;;;;;;27.58;54.14;96764.72;4184636;28;5807;-64
2023/06/22 08:32:18;;;;;;;;;;;;;;;27.59;54.11;96776.38;4184577;28;5716;-63
2023/06/22 08:34:27;;;;;;;;;;;;;;;27.59;54.21;96779.88;4184295;28;5696;-63
2023/06/22 08:36:32;;;;;;;;;;;;;;;27.60;54.23;96776.06;4184679;28;5704;-64
2023/06/22 08:38:35;;;;;;;;;;;;;;;27.59;54.30;96774.47;4184377;28;5768;-64
2023/06/22 08:40:41;;;;;;;;;;;;;;;27.61;54.08;96766.81;4184843;28;6470;-64
2023/06/22 08:42:44;;;;;;;;;;;;;;;27.64;54.21;96768.13;4184402;28;5933;-63
2023/06/22 08:44:47;;;;;;;;;;;;;;;27.65;53.93;96761.63;4184425;28;5709;-63
2023/06/22 08:46:51;;;;;;;;;;;;;;;27.63;54.14;96751.00;4183667;28;5783;-63
2023/06/22 08:48:54;;;;;;;;;;;;;;;27.60;54.12;96759.78;4183816;28;5708;-64
2023/06/22 08:50:57;;;;;;;;;;;;;;;27.61;54.17;96760.56;4183955;28;5756;-63
2023/06/22 08:53:00;;;;;;;;;;;;;;;27.62;54.35;96767.59;4184061;28;5818;-63
2023/06/22 08:55:04;;;;;;;;;;;;;;;27.61;54.16;96768.72;4184430;28;5709;-63
2023/06/22 08:57:07;;;;;;;;;;;;;;;27.61;54.14;96755.94;4183952;28;5793;-61
2023/06/22 08:59:10;;;;;;;;;;;;;;;27.62;54.15;96746.69;4182740;28;5650;-61
2023/06/22 09:01:15;;;;;;;;;;;;;;;27.63;54.25;96742.88;4184275;28;5806;-62
2023/06/22 09:03:20;;;;;;;;;;;;;;;27.65;54.06;96745.34;4183903;28;5828;-61
2023/06/22 09:05:23;;;;;;;;;;;;;;;27.66;54.11;96741.50;4184136;28;5720;-63
2023/06/22 09:07:26;;;;;;;;;;;;;;;27.66;54.25;96765.94;4183015;28;5838;-62
2023/06/22 09:09:29;;;;;;;;;;;;;;;27.66;54.21;96766.75;4183771;28;5717;-62
2023/06/22 09:11:33;;;;;;;;;;;;;;;27.64;54.16;96754.56;4184201;28;5708;-62
2023/06/22 09:13:36;;;;;;;;;;;;;;;27.63;54.26;96780.06;4184103;28;6397;-63
2023/06/22 09:15:39;;;;;;;;;;;;;;;27.61;54.28;96799.41;4184189;28;5716;-62
2023/06/22 09:17:43;;;;;;;;;;;;;;;27.62;54.11;96775.75;4183751;28;5720;-62
2023/06/22 09:19:48;;;;;;;;;;;;;;;27.59;54.16;96779.88;4183538;28;5720;-62
2023/06/22 09:21:52;;;;;;;;;;;;;;;27.58;54.32;96766.63;4183901;28;5712;-62
2023/06/22 09:23:59;;;;;;;;;;;;;;;27.57;54.34;96771.25;4183807;28;5724;-62
2023/06/22 09:26:04;;;;;;;;;;;;;;;27.59;54.33;96779.88;4184018;28;5720;-62
2023/06/22 09:28:07;;;;;;;;;;;;;;;27.60;54.45;96786.91;4183502;28;5760;-62
2023/06/22 09:30:10;;;;;;;;;;;;;;;27.62;54.34;96781.19;4184069;28;5724;-62
2023/06/22 09:32:13;;;;;;;;;;;;;;;27.61;54.35;96783.09;4183982;28;5741;-63
2023/06/22 09:34:20;;;;;;;;;;;;;;;27.62;54.49;96787.41;4183861;28;5705;-62
2023/06/22 09:36:24;;;;;;;;;;;;;;;27.63;54.43;96786.31;4183595;28;5712;-62
2023/06/22 09:38:27;;;;;;;;;;;;;;;27.62;54.47;96806.44;4175849;28;5725;-62
2023/06/22 09:40:32;;;;;;;;;;;;;;;27.61;54.45;96809.44;4183892;28;5813;-63
2023/06/22 09:42:35;;;;;;;;;;;;;;;27.60;54.38;96819.50;4183690;28;5724;-63
2023/06/22 09:44:40;;;;;;;;;;;;;;;27.60;54.37;96830.38;4183749;28;5696;-63
2023/06/22 09:46:43;;;;;;;;;;;;;;;27.61;54.54;96842.84;4183410;28;5997;-63
2023/06/22 09:48:46;;;;;;;;;;;;;;;27.62;54.46;96855.31;4176894;28;5716;-62
2023/06/22 09:50:49;;;;;;;;;;;;;;;27.60;54.77;96876.53;4183557;28;6670;-62
2023/06/22 09:52:54;;;;;;;;;;;;;;;27.59;54.36;96877.66;4183778;28;5708;-62
2023/06/22 09:54:57;;;;;;;;;;;;;;;27.56;54.18;96880.97;4182929;28;5786;-62
2023/06/22 09:57:00;;;;;;;;;;;;;;;27.54;54.32;96902.19;4183104;28;5771;-63
2023/06/22 09:59:03;;;;;;;;;;;;;;;27.52;54.20;96916.06;4183260;28;5861;-63
2023/06/22 10:01:21;;;;;;;;;;;;;;;27.53;54.28;96944.03;4183456;28;5724;-63
2023/06/22 10:03:24;;;;;;;;;;;;;;;27.49;54.04;96945.69;4184123;28;5728;-63
2023/06/22 10:05:28;;;;;;;;;;;;;;;27.45;54.09;96942.78;4178589;28;6469;-63
2023/06/22 10:07:31;;;;;;;;;;;;;;;27.40;54.42;96948.28;4186435;28;5088;-64
2023/06/22 10:09:35;;;;;;;;;;;;;;;27.36;54.39;96950.00;4185934;28;5720;-63
2023/06/22 10:11:38;;;;;;;;;;;;;;;27.35;54.67;96958.44;4179607;28;5712;-63
2023/06/22 10:13:41;;;;;;;;;;;;;;;27.35;54.56;96963.88;4186315;28;5103;-64
2023/06/22 10:15:49;;;;;;;;;;;;;;;27.31;54.58;96971.00;4186025;28;5873;-63
2023/06/22 10:17:52;;;;;;;;;;;;;;;27.30;54.44;96944.97;4185988;28;5715;-63
2023/06/22 10:19:55;;;;;;;;;;;;;;;27.28;54.68;96943.31;4182600;28;5797;-63
2023/06/22 10:21:58;;;;;;;;;;;;;;;27.28;54.48;96954.19;4182754;28;5998;-63
2023/06/22 10:24:05;;;;;;;;;;;;;;;27.28;54.62;96954.19;4186261;28;5709;-63
2023/06/22 10:26:10;;;;;;;;;;;;;;;27.27;54.23;96955.28;4186486;28;5909;-64
2023/06/22 10:28:13;;;;;;;;;;;;;;;27.27;54.33;96947.16;4186139;28;5799;-63
2023/06/22 10:30:16;;;;;;;;;;;;;;;27.28;54.21;96948.75;4186593;28;7192;-63
2023/06/22 10:32:19;;;;;;;;;;;;;;;27.28;53.97;96927.03;4186265;28;5724;-64
2023/06/22 10:34:22;;;;;;;;;;;;;;;27.28;53.71;96921.63;4185835;28;5712;-63
2023/06/22 10:36:25;;;;;;;;;;;;;;;27.25;53.74;96919.50;4186444;28;5927;-64
2023/06/22 10:38:28;;;;;;;;;;;;;;;27.23;53.41;96908.16;4186445;28;5728;-64
2023/06/22 10:40:31;;;;;;;;;;;;;;;27.20;53.41;96903.31;4186160;28;5716;-63
2023/06/22 10:42:36;;;;;;;;;;;;;;;27.22;53.02;96901.09;4186120;28;5716;-64
2023/06/22 10:44:41;;;;;;;;;;;;;;;27.25;52.70;96900.50;4186143;28;5827;-62
2023/06/22 10:46:44;;;;;;;;;;;;;;;27.30;52.67;96901.53;4185982;28;5803;-62
2023/06/22 10:48:46;;;;;;;;;;;;;;;27.30;52.38;96885.25;4185922;28;6422;-62
2023/06/22 10:50:49;;;;;;;;;;;;;;;27.31;51.85;96867.88;4186052;28;5999;-62
2023/06/22 10:52:52;;;;;;;;;;;;;;;27.32;51.79;96867.56;4186229;28;5716;-62
2023/06/22 10:54:55;;;;;;;;;;;;;;;27.30;51.80;96882.53;4184535;28;5743;-63
2023/06/22 10:56:58;;;;;;;;;;;;;;;27.26;51.63;96890.44;4185834;28;5934;-63
2023/06/22 10:59:02;;;;;;;;;;;;;;;27.27;51.58;96901.00;4185989;28;5846;-62
2023/06/22 11:01:05;;;;;;;;;;;;;;;27.31;51.56;96916.72;4185845;28;7167;-62
2023/06/22 11:03:08;;;;;;;;;;;;;;;27.31;51.27;96930.28;4185816;28;5619;-62
2023/06/22 11:05:14;;;;;;;;;;;;;;;27.32;51.06;96923.75;4185861;28;5810;-63
2023/06/22 11:07:17;;;;;;;;;;;;;;;27.34;51.09;96903.34;4185606;28;5712;-63
2023/06/22 11:09:23;;;;;;;;;;;;;;;27.35;50.98;96902.25;4185874;28;5720;-64
2023/06/22 11:11:31;;;;;;;;;;;;;;;27.34;50.85;96910.69;4178523;28;5720;-62
2023/06/22 11:13:34;;;;;;;;;;;;;;;27.32;51.07;96913.69;4185637;28;5858;-62
2023/06/22 11:15:39;;;;;;;;;;;;;;;27.31;50.98;96914.81;4185529;28;5724;-62
2023/06/22 11:17:45;;;;;;;;;;;;;;;27.33;51.04;96909.06;4185452;28;5724;-62
2023/06/22 11:19:48;;;;;;;;;;;;;;;27.33;51.18;96906.38;4185379;28;5712;-63
2023/06/22 11:21:50;;;;;;;;;;;;;;;27.33;51.21;96906.38;4185672;28;5714;-62
2023/06/22 11:23:53;;;;;;;;;;;;;;;27.33;51.20;96909.88;4185522;28;5732;-63
2023/06/22 11:25:59;;;;;;;;;;;;;;;27.31;51.07;96906.66;4185638;28;5737;-62
2023/06/22 11:28:03;;;;;;;;;;;;;;;27.31;51.26;96897.72;4185303;28;5720;-63
2023/06/22 11:30:07;;;;;;;;;;;;;;;27.34;51.21;96888.97;4185428;28;5839;-63
2023/06/22 11:32:12;;;;;;;;;;;;;;;27.26;51.51;96887.72;4185376;28;5836;-63
2023/06/22 11:34:17;;;;;;;;;;;;;;;27.25;51.31;96870.66;4185416;28;6205;-64
2023/06/22 11:36:20;;;;;;;;;;;;;;;27.28;51.32;96870.03;4185348;28;5752;-63
2023/06/22 11:38:23;;;;;;;;;;;;;;;27.31;51.34;96879.53;4185164;28;5818;-61
2023/06/22 11:40:26;;;;;;;;;;;;;;;27.35;51.38;96893.28;4177074;28;5704;-62
2023/06/22 11:42:29;;;;;;;;;;;;;;;27.36;51.47;96903.03;4185207;28;5958;-62
2023/06/22 11:44:32;;;;;;;;;;;;;;;27.38;51.42;96915.22;4185141;28;6209;-62
2023/06/22 11:46:35;;;;;;;;;;;;;;;27.41;51.58;96917.34;4184913;28;5829;-63
2023/06/22 11:48:40;;;;;;;;;;;;;;;27.44;51.35;96908.59;4185003;28;5909;-62
2023/06/22 11:50:43;;;;;;;;;;;;;;;27.46;51.58;96905.59;4184973;28;5828;-63
2023/06/22 11:52:46;;;;;;;;;;;;;;;27.47;51.40;96934.34;4185348;28;6414;-63
2023/06/22 11:54:48;;;;;;;;;;;;;;;27.46;51.51;96932.72;4184968;28;5766;-64
2023/06/22 11:56:52;;;;;;;;;;;;;;;27.45;51.51;96948.22;4185242;28;5700;-63
2023/06/22 11:58:56;;;;;;;;;;;;;;;27.43;51.49;96965.91;4184830;28;6350;-63
2023/06/22 12:00:59;;;;;;;;;;;;;;;27.42;51.48;96973.25;4184870;28;5713;-63
2023/06/22 12:03:04;;;;;;;;;;;;;;;27.41;51.59;96963.50;4185014;28;5716;-62
2023/06/22 12:05:09;;;;;;;;;;;;;;;27.39;51.39;96926.88;4178608;28;5831;-63
2023/06/22 12:07:12;;;;;;;;;;;;;;;27.34;51.67;96895.22;4174942;28;5849;-63
2023/06/22 12:09:15;;;;;;;;;;;;;;;27.25;51.68;96854.38;4177324;28;5799;-63
2023/06/22 12:11:18;;;;;;;;;;;;;;;27.24;51.61;96862.81;4176758;28;5551;-63
2023/06/22 12:13:21;;;;;;;;;;;;;;;27.22;51.61;96884.81;4183374;28;5716;-63
2023/06/22 12:15:24;;;;;;;;;;;;;;;27.23;51.66;96883.72;4183404;28;5719;-64
2023/06/22 12:17:27;;;;;;;;;;;;;;;27.26;51.51;96874.97;4174387;28;5755;-63
2023/06/22 12:19:30;;;;;;;;;;;;;;;27.29;51.51;96873.56;4180139;28;5733;-63
2023/06/22 12:21:35;;;;;;;;;;;;;;;27.30;51.33;96860.81;4174602;28;5811;-64
2023/06/22 12:23:38;;;;;;;;;;;;;;;27.31;51.36;96865.16;4182588;28;5807;-64
2023/06/22 12:25:40;;;;;;;;;;;;;;;27.32;51.26;96861.31;4177138;28;5115;-62
2023/06/22 12:27:43;;;;;;;;;;;;;;;27.34;51.24;96848.25;4176160;28;5815;-61
2023/06/22 12:29:52;;;;;;;;;;;;;;;27.36;51.26;96851.47;4182701;28;5935;-63
2023/06/22 12:31:55;;;;;;;;;;;;;;;27.37;51.08;96842.22;4182795;28;5861;-63
2023/06/22 12:33:58;;;;;;;;;;;;;;;27.39;51.16;96862.53;4181302;28;5736;-63
2023/06/22 12:36:01;;;;;;;;;;;;;;;27.42;50.90;96861.16;4179307;28;6454;-63
2023/06/22 12:38:07;;;;;;;;;;;;;;;27.46;51.04;96852.09;4179560;28;5820;-63
2023/06/22 12:40:10;;;;;;;;;;;;;;;27.50;50.90;96853.09;4173249;28;5721;-63
2023/06/22 12:42:14;;;;;;;;;;;;;;;27.56;50.73;96862.75;4179233;28;6572;-63
2023/06/22 12:44:18;;;;;;;;;;;;;;;27.59;50.50;96872.22;4179315;28;6582;-63
2023/06/22 12:46:21;;;;;;;;;;;;;;;27.62;50.52;96868.88;4182445;28;6480;-63
2023/06/22 12:48:24;;;;;;;;;;;;;;;27.64;50.48;96866.69;4181809;28;5811;-62
2023/06/22 12:50:28;;;;;;;;;;;;;;;27.68;50.29;96865.00;4182422;28;5871;-63
2023/06/22 12:52:32;;;;;;;;;;;;;;;27.68;50.23;96875.06;4182678;28;5716;-63
2023/06/22 12:54:36;;;;;;;;;;;;;;;27.69;50.14;96874.78;4182849;28;5708;-63
2023/06/22 12:56:56;;;;;;;;;;;;;;;27.71;50.03;96869.84;4182489;28;5834;-63
2023/06/22 12:59:01;;;;;;;;;;;;;;;27.76;49.63;96879.81;4182586;28;5735;-63
2023/06/22 13:01:04;;;;;;;;;;;;;;;27.79;49.67;96866.44;4173698;28;5733;-63
2023/06/22 13:03:07;;;;;;;;;;;;;;;27.80;49.52;96859.06;4179976;28;6552;-62
2023/06/22 13:05:10;;;;;;;;;;;;;;;27.81;49.45;96857.97;4182578;28;5801;-63
2023/06/22 13:07:14;;;;;;;;;;;;;;;27.82;49.37;96859.56;4181964;28;5815;-64
2023/06/22 13:09:25;;;;;;;;;;;;;;;27.85;49.25;96853.53;4182325;28;5895;-63
2023/06/22 13:11:30;;;;;;;;;;;;;;;27.90;49.03;96849.94;4182114;28;5817;-64
2023/06/22 13:13:33;;;;;;;;;;;;;;;27.91;48.80;96840.66;4182259;28;5720;-63
2023/06/22 13:15:36;;;;;;;;;;;;;;;27.92;48.64;96839.56;4182329;28;5719;-63
2023/06/22 13:17:39;;;;;;;;;;;;;;;27.92;48.65;96848.50;4178504;28;5870;-63
2023/06/22 13:19:42;;;;;;;;;;;;;;;27.92;48.60;96842.28;4179456;28;5768;-63
2023/06/22 13:21:47;;;;;;;;;;;;;;;27.92;48.45;96837.63;4177562;28;5810;-63
2023/06/22 13:23:50;;;;;;;;;;;;;;;27.91;48.40;96832.50;4182269;28;5916;-64
2023/06/22 13:25:53;;;;;;;;;;;;;;;27.91;48.38;96830.59;4182243;28;5791;-63
2023/06/22 13:27:57;;;;;;;;;;;;;;;27.94;48.15;96823.75;4182261;28;5807;-63
2023/06/22 13:30:00;;;;;;;;;;;;;;;27.97;48.12;96812.25;4182360;28;5809;-64
2023/06/22 13:32:04;;;;;;;;;;;;;;;27.97;48.07;96794.03;4182790;28;5813;-62
2023/06/22 13:34:07;;;;;;;;;;;;;;;27.99;47.99;96788.34;4180784;28;5717;-64
2023/06/22 13:36:10;;;;;;;;;;;;;;;27.98;48.08;96790.25;4179993;28;5723;-63
2023/06/22 13:38:13;;;;;;;;;;;;;;;27.99;47.97;96782.91;4182072;28;5135;-63
2023/06/22 13:40:15;;;;;;;;;;;;;;;27.99;47.83;96774.75;4183306;28;5806;-62
2023/06/22 13:42:18;;;;;;;;;;;;;;;28.00;47.89;96773.63;4185525;28;5716;-63
2023/06/22 13:44:23;;;;;;;;;;;;;;;27.98;47.85;96770.44;4185707;28;5807;-63
2023/06/22 13:46:26;;;;;;;;;;;;;;;28.00;47.78;96773.63;4185214;28;5716;-62
2023/06/22 13:48:29;;;;;;;;;;;;;;;28.02;47.73;96779.56;4185270;28;5851;-62
2023/06/22 13:50:32;;;;;;;;;;;;;;;28.05;47.63;96765.38;4185393;28;6354;-63
2023/06/22 13:52:36;;;;;;;;;;;;;;;28.08;47.52;96759.31;4182039;28;5720;-62
2023/06/22 13:54:39;;;;;;;;;;;;;;;28.10;47.48;96757.91;4185637;28;5894;-63
2023/06/22 13:56:42;;;;;;;;;;;;;;;28.12;47.28;96757.59;4185357;28;7722;-63
2023/06/22 13:58:45;;;;;;;;;;;;;;;28.15;47.05;96759.69;4185166;28;5741;-63
2023/06/22 14:00:49;;;;;;;;;;;;;;;28.18;46.83;96759.06;4185277;28;6519;-63
2023/06/22 14:02:58;;;;;;;;;;;;;;;28.22;46.85;96760.09;4185316;28;6194;-63
2023/06/22 14:05:02;;;;;;;;;;;;;;;28.26;46.62;96757.56;4185272;28;5815;-64
2023/06/22 14:07:09;;;;;;;;;;;;;;;28.26;46.52;96750.19;4185059;28;5825;-64
2023/06/22 14:09:12;;;;;;;;;;;;;;;28.27;46.33;96762.72;4181911;28;5858;-64
2023/06/22 14:11:15;;;;;;;;;;;;;;;28.27;46.33;96762.72;4185190;28;5799;-64
2023/06/22 14:13:18;;;;;;;;;;;;;;;28.28;46.68;96767.03;4185400;28;5860;-63
2023/06/22 14:15:21;;;;;;;;;;;;;;;28.31;46.19;96769.13;4185278;28;5700;-63
2023/06/22 14:17:26;;;;;;;;;;;;;;;28.30;46.09;96770.25;4184611;28;5818;-63
2023/06/22 14:19:29;;;;;;;;;;;;;;;28.31;45.84;96777.28;4184600;28;5708;-63
2023/06/22 14:21:34;;;;;;;;;;;;;;;28.33;45.81;96780.53;4183774;28;7050;-62
2023/06/22 14:23:38;;;;;;;;;;;;;;;28.31;45.51;96777.28;4178066;28;5798;-63
2023/06/22 14:25:41;;;;;;;;;;;;;;;28.34;45.49;96784.03;4180527;28;5105;-64
2023/06/22 14:27:44;;;;;;;;;;;;;;;28.34;45.47;96779.41;4184412;28;6450;-63
2023/06/22 14:29:47;;;;;;;;;;;;;;;28.34;45.42;96763.09;4183413;28;5834;-63
2023/06/22 14:31:50;;;;;;;;;;;;;;;28.35;45.31;96758.47;4178693;28;5745;-63
2023/06/22 14:33:55;;;;;;;;;;;;;;;28.35;45.10;96740.22;4179888;28;5712;-66
2023/06/22 14:35:57;;;;;;;;;;;;;;;28.36;45.04;96739.13;4179685;28;5860;-62
2023/06/22 14:38:00;;;;;;;;;;;;;;;28.35;44.94;96740.22;4175697;28;6335;-62
2023/06/22 14:40:04;;;;;;;;;;;;;;;28.36;44.81;96741.03;4179133;28;5984;-63
2023/06/22 14:42:07;;;;;;;;;;;;;;;28.36;44.61;96747.28;4176139;28;5802;-63
2023/06/22 14:44:10;;;;;;;;;;;;;;;28.35;44.52;96731.28;4179357;28;5772;-63
2023/06/22 14:46:13;;;;;;;;;;;;;;;28.35;44.40;96713.03;4178466;28;5882;-63
2023/06/22 14:48:16;;;;;;;;;;;;;;;28.38;44.50;96711.63;4185473;28;5787;-62
2023/06/22 14:50:20;;;;;;;;;;;;;;;28.38;44.61;96714.34;4184885;28;5838;-63
2023/06/22 14:52:23;;;;;;;;;;;;;;;28.37;44.66;96713.53;4181685;28;5811;-63
2023/06/22 14:54:26;;;;;;;;;;;;;;;28.36;44.72;96717.38;4184844;28;5716;-63
2023/06/22 14:56:29;;;;;;;;;;;;;;;28.35;44.85;96699.44;4182636;28;5876;-63
2023/06/22 14:58:35;;;;;;;;;;;;;;;28.35;44.87;96701.38;4183911;28;5930;-64
2023/06/22 15:00:38;;;;;;;;;;;;;;;28.31;45.07;96693.00;4180581;28;5697;-64
2023/06/22 15:02:42;;;;;;;;;;;;;;;28.28;45.13;96688.19;4181405;28;5713;-62
2023/06/22 15:04:45;;;;;;;;;;;;;;;28.25;45.38;96693.44;4181004;28;6015;-63
2023/06/22 15:06:49;;;;;;;;;;;;;;;28.21;45.64;96693.25;4175132;28;5717;-63
2023/06/22 15:08:52;;;;;;;;;;;;;;;28.18;45.87;96702.00;4174579;28;5844;-63
2023/06/22 15:10:56;;;;;;;;;;;;;;;28.17;45.95;96703.13;4179783;28;5708;-63
2023/06/22 15:12:59;;;;;;;;;;;;;;;28.18;46.02;96710.16;4179965;28;5881;-62
2023/06/22 15:15:02;;;;;;;;;;;;;;;28.18;46.40;96737.34;4178775;28;5712;-63
2023/06/22 15:17:06;;;;;;;;;;;;;;;28.18;46.39;96786.25;4181212;28;5708;-63
2023/06/22 15:19:09;;;;;;;;;;;;;;;28.17;46.53;96968.66;4184768;28;5752;-63
2023/06/22 15:21:16;;;;;;;;;;;;;;;28.08;46.74;97064.47;4184948;28;5775;-63
2023/06/22 15:23:20;;;;;;;;;;;;;;;27.48;47.37;97063.56;4185111;28;5771;-63
2023/06/22 15:25:23;;;;;;;;;;;;;;;26.80;48.54;97115.47;4185299;28;5704;-63
2023/06/22 15:27:26;;;;;;;;;;;;;;;26.34;49.45;97119.47;4176607;28;5856;-63
2023/06/22 15:29:33;;;;;;;;;;;;;;;25.93;50.81;97146.09;4184570;28;5817;-63
2023/06/22 15:31:37;;;;;;;;;;;;;;;25.42;52.13;97135.59;4184912;28;5724;-63
2023/06/22 15:33:39;;;;;;;;;;;;;;;25.11;52.81;97153.06;4179800;28;5787;-63
2023/06/22 15:35:42;;;;;;;;;;;;;;;24.78;53.52;97149.91;4180792;28;5895;-62
2023/06/22 15:37:51;;;;;;;;;;;;;;;24.65;54.43;97164.81;4180846;28;5908;-62
2023/06/22 15:39:58;;;;;;;;;;;;;;;24.41;55.12;97163.78;4177930;28;5724;-62
2023/06/22 15:42:01;;;;;;;;;;;;;;;24.26;55.42;97140.28;4178483;28;5720;-62
2023/06/22 15:44:04;;;;;;;;;;;;;;;24.20;55.96;97156.75;4179386;28;5902;-63
2023/06/22 15:46:07;;;;;;;;;;;;;;;24.13;56.40;97162.47;4177521;28;5898;-65
2023/06/22 15:48:10;;;;;;;;;;;;;;;24.24;57.18;97163.25;4175266;28;5737;-64
2023/06/22 15:50:13;;;;;;;;;;;;;;;24.29;57.03;97161.34;4176812;28;5733;-64
2023/06/22 15:52:18;;;;;;;;;;;;;;;24.26;57.29;97172.72;4184475;28;5105;-65
2023/06/22 15:54:21;;;;;;;;;;;;;;;24.29;58.17;97182.97;4181592;28;5824;-64
2023/06/22 15:56:25;;;;;;;;;;;;;;;24.28;58.10;97172.44;4179838;28;5726;-63
2023/06/22 15:58:29;;;;;;;;;;;;;;;24.25;58.84;97187.28;4175208;28;5728;-65
2023/06/22 16:00:32;;;;;;;;;;;;;;;24.25;58.95;97190.00;4171598;28;5740;-61
2023/06/22 16:02:35;;;;;;;;;;;;;;;24.26;59.49;97186.22;4175413;28;6993;-62
2023/06/22 16:04:38;;;;;;;;;;;;;;;24.25;60.08;97184.59;4181176;28;5787;-65
2023/06/22 16:06:41;;;;;;;;;;;;;;;24.27;60.30;97185.13;4173468;28;5856;-65
2023/06/22 16:08:45;;;;;;;;;;;;;;;24.27;60.85;97171.63;4175644;28;6234;-65
2023/06/22 16:10:48;;;;;;;;;;;;;;;24.30;61.29;97168.41;4173453;28;7710;-65
2023/06/22 16:12:52;;;;;;;;;;;;;;;24.29;61.51;97165.94;4173593;28;5817;-65
2023/06/22 16:14:56;;;;;;;;;;;;;;;24.27;61.85;97173.50;4169874;28;5729;-64
2023/06/22 16:16:59;;;;;;;;;;;;;;;24.26;62.50;97172.72;4173553;28;5724;-65
2023/06/22 16:19:05;;;;;;;;;;;;;;;24.28;62.59;97175.94;4174896;28;6043;-65
2023/06/22 16:21:09;;;;;;;;;;;;;;;24.32;62.78;97179.75;4175227;28;5725;-65